createdAt,value
2023-03-26T00:00:13.299Z,17.73
2023-03-26T00:01:23.925Z,17.15
2023-03-26T00:02:29.998Z,17.95
2023-03-26T00:03:34.778Z,17.15
2023-03-26T00:04:38.577Z,16.80
2023-03-26T00:05:41.321Z,17.17
2023-03-26T00:06:44.909Z,17.60
2023-03-26T00:07:48.928Z,17.75
2023-03-26T00:08:53.366Z,18.63
2023-03-26T00:09:56.123Z,17.92
2023-03-26T00:11:01.052Z,17.92
2023-03-26T00:12:05.087Z,17.08
2023-03-26T00:13:08.433Z,18.98
2023-03-26T00:14:14.219Z,17.75
2023-03-26T00:15:16.832Z,17.58
2023-03-26T00:16:22.452Z,17.90
2023-03-26T00:17:25.140Z,19.35
2023-03-26T00:18:31.730Z,18.00
2023-03-26T00:19:34.390Z,17.15
2023-03-26T00:20:38.540Z,18.10
2023-03-26T00:21:41.687Z,18.45
2023-03-26T00:22:45.774Z,18.30
2023-03-26T00:23:49.469Z,17.73
2023-03-26T00:25:56.485Z,17.08
2023-03-26T00:27:01.198Z,17.73
2023-03-26T00:28:04.374Z,19.67
2023-03-26T00:29:10.012Z,18.65
2023-03-26T00:30:13.118Z,19.05
2023-03-26T00:31:17.070Z,18.23
2023-03-26T00:32:21.116Z,20.17
2023-03-26T00:33:25.037Z,18.98
2023-03-26T00:34:27.496Z,17.95
2023-03-26T00:35:31.394Z,18.73
2023-03-26T00:36:36.339Z,18.00
2023-03-26T00:37:43.286Z,19.60
2023-03-26T00:38:47.217Z,19.17
2023-03-26T00:39:50.800Z,19.40
2023-03-26T00:40:53.591Z,19.30
2023-03-26T00:41:57.388Z,18.02
2023-03-26T00:42:59.888Z,19.70
2023-03-26T00:44:03.682Z,18.40
2023-03-26T00:46:10.061Z,18.42
2023-03-26T00:47:13.416Z,16.70
2023-03-26T00:48:19.514Z,19.08
2023-03-26T00:49:22.189Z,18.63
2023-03-26T00:50:25.865Z,19.00
2023-03-26T00:52:32.214Z,18.00
2023-03-26T00:53:34.651Z,19.00
2023-03-26T00:54:38.470Z,20.15
2023-03-26T00:55:41.748Z,17.70
2023-03-26T00:56:45.274Z,19.98
2023-03-26T00:57:47.763Z,19.58
2023-03-26T00:58:51.627Z,19.55
2023-03-26T00:59:54.210Z,19.60
2023-03-26T01:01:00.904Z,19.35
2023-03-26T01:02:05.213Z,18.52
2023-03-26T01:03:07.905Z,19.30
2023-03-26T01:04:32.087Z,18.83
2023-03-26T01:05:53.369Z,19.67
2023-03-26T01:06:58.716Z,17.50
2023-03-26T01:08:02.188Z,19.60
2023-03-26T01:09:12.868Z,19.40
2023-03-26T01:10:15.354Z,19.08
2023-03-26T01:11:22.165Z,20.42
2023-03-26T01:12:28.122Z,18.23
2023-03-26T01:13:35.341Z,19.05
2023-03-26T01:14:38.796Z,19.15
2023-03-26T01:15:42.552Z,18.27
2023-03-26T01:16:50.246Z,20.35
2023-03-26T01:17:58.057Z,19.00
2023-03-26T01:19:02.378Z,17.95
2023-03-26T01:20:15.220Z,19.00
2023-03-26T01:21:23.602Z,19.15
2023-03-26T01:22:27.962Z,19.95
2023-03-26T01:23:39.544Z,20.42
2023-03-26T01:24:46.451Z,18.83
2023-03-26T01:25:56.276Z,19.60
2023-03-26T01:27:11.163Z,19.90
2023-03-26T01:28:14.432Z,19.50
2023-03-26T01:29:23.954Z,19.83
2023-03-26T01:30:35.081Z,20.45
2023-03-26T01:31:48.593Z,18.38
2023-03-26T01:32:59.310Z,19.30
2023-03-26T01:34:12.653Z,18.75
2023-03-26T01:35:29.626Z,19.00
2023-03-26T01:36:40.797Z,18.60
2023-03-26T01:37:53.948Z,19.42
2023-03-26T01:39:04.741Z,18.83
2023-03-26T01:40:12.611Z,18.27
2023-03-26T01:41:22.583Z,18.23
2023-03-26T01:43:37.805Z,16.35
2023-03-26T01:44:48.410Z,17.15
2023-03-26T01:45:53.972Z,18.70
2023-03-26T01:46:59.234Z,19.23
2023-03-26T01:48:03.260Z,19.58
2023-03-26T01:49:06.839Z,20.10
2023-03-26T01:50:11.403Z,18.05
2023-03-26T01:51:25.655Z,18.63
2023-03-26T01:52:29.248Z,19.45
2023-03-26T01:53:33.666Z,19.20
2023-03-26T01:54:37.362Z,18.70
2023-03-26T01:57:04.445Z,18.02
2023-03-26T01:58:12.964Z,17.25
2023-03-26T01:59:33.975Z,17.20
2023-03-26T02:00:42.635Z,16.13
2023-03-26T02:01:55.036Z,16.75
2023-03-26T02:03:18.034Z,16.17
2023-03-26T02:04:26.778Z,17.40
2023-03-26T02:05:35.442Z,17.67
2023-03-26T02:06:45.154Z,17.55
2023-03-26T02:07:54.473Z,16.98
2023-03-26T02:09:01.227Z,17.52
2023-03-26T02:10:10.604Z,18.65
2023-03-26T02:11:16.655Z,18.33
2023-03-26T02:12:22.871Z,17.23
2023-03-26T02:13:26.084Z,17.23
2023-03-26T02:14:31.527Z,17.40
2023-03-26T02:15:34.147Z,17.88
2023-03-26T02:16:37.841Z,18.02
2023-03-26T02:18:45.283Z,15.40
2023-03-26T02:19:48.324Z,17.67
2023-03-26T02:20:53.269Z,17.35
2023-03-26T02:22:00.095Z,16.40
2023-03-26T02:23:02.564Z,16.67
2023-03-26T02:24:06.364Z,17.80
2023-03-26T02:25:10.884Z,17.55
2023-03-26T02:26:18.733Z,17.40
2023-03-26T02:27:21.296Z,16.83
2023-03-26T02:28:24.946Z,16.58
2023-03-26T02:30:34.068Z,15.18
2023-03-26T02:31:36.961Z,17.27
2023-03-26T02:32:40.784Z,16.13
2023-03-26T02:33:44.871Z,16.75
2023-03-26T02:34:48.437Z,17.98
2023-03-26T02:35:50.995Z,15.88
2023-03-26T02:36:54.766Z,16.45
2023-03-26T02:39:01.231Z,16.13
2023-03-26T02:40:05.565Z,15.57
2023-03-26T02:41:09.552Z,16.17
2023-03-26T02:42:13.553Z,17.00
2023-03-26T02:43:17.135Z,15.75
2023-03-26T02:44:19.636Z,16.85
2023-03-26T02:45:23.431Z,17.33
2023-03-26T02:47:29.354Z,15.15
2023-03-26T02:49:35.466Z,14.68
2023-03-26T02:50:39.606Z,16.55
2023-03-26T02:51:42.267Z,16.73
2023-03-26T02:52:49.261Z,17.10
2023-03-26T02:53:53.895Z,18.10
2023-03-26T02:54:57.438Z,16.13
2023-03-26T02:56:00.823Z,16.40
2023-03-26T02:57:04.670Z,16.80
2023-03-26T02:58:08.795Z,17.90
2023-03-26T02:59:12.373Z,16.65
2023-03-26T03:00:15.569Z,15.30
2023-03-26T03:01:19.223Z,17.77
2023-03-26T03:03:30.272Z,14.00
2023-03-26T03:04:32.763Z,15.40
2023-03-26T03:05:38.290Z,15.98
2023-03-26T03:06:40.878Z,15.80
2023-03-26T03:07:46.784Z,16.63
2023-03-26T03:08:50.206Z,15.88
2023-03-26T03:09:53.749Z,16.05
2023-03-26T03:10:57.951Z,16.25
2023-03-26T03:12:01.543Z,14.55
2023-03-26T03:13:06.232Z,16.17
2023-03-26T03:14:11.303Z,15.38
2023-03-26T03:15:14.260Z,15.68
2023-03-26T03:16:18.615Z,16.23
2023-03-26T03:17:21.331Z,16.05
2023-03-26T03:18:25.034Z,15.95
2023-03-26T03:21:33.639Z,14.73
2023-03-26T03:22:37.207Z,15.00
2023-03-26T03:23:39.867Z,15.27
2023-03-26T03:24:44.026Z,15.15
2023-03-26T03:25:47.021Z,15.48
2023-03-26T03:26:50.540Z,15.13
2023-03-26T03:27:54.144Z,14.35
2023-03-26T03:28:58.718Z,14.65
2023-03-26T03:30:03.118Z,16.95
2023-03-26T03:31:09.294Z,16.40
2023-03-26T03:32:11.826Z,15.40
2023-03-26T03:33:15.629Z,13.85
2023-03-26T03:34:19.270Z,15.05
2023-03-26T03:36:28.078Z,14.20
2023-03-26T03:37:30.908Z,15.25
2023-03-26T03:38:34.595Z,16.10
2023-03-26T03:39:37.208Z,15.35
2023-03-26T03:40:40.767Z,13.70
2023-03-26T03:41:43.318Z,14.70
2023-03-26T03:42:46.926Z,15.40
2023-03-26T03:43:49.416Z,14.90
2023-03-26T03:44:53.184Z,16.25
2023-03-26T03:45:57.809Z,14.73
2023-03-26T03:47:01.761Z,15.07
2023-03-26T03:49:07.588Z,15.30
2023-03-26T03:50:11.081Z,15.98
2023-03-26T03:51:14.571Z,15.48
2023-03-26T03:52:18.304Z,15.68
2023-03-26T03:54:24.410Z,13.60
2023-03-26T03:55:29.011Z,15.32
2023-03-26T03:56:31.560Z,15.50
2023-03-26T03:57:35.340Z,14.68
2023-03-26T03:59:47.310Z,14.95
2023-03-26T04:00:51.718Z,14.40
2023-03-26T04:01:56.638Z,14.73
2023-03-26T04:02:59.394Z,13.75
2023-03-26T04:04:03.096Z,14.35
2023-03-26T04:06:11.353Z,14.52
2023-03-26T04:07:13.867Z,14.85
2023-03-26T04:08:18.079Z,15.68
2023-03-26T04:09:20.536Z,14.27
2023-03-26T04:10:24.116Z,15.25
2023-03-26T04:11:26.764Z,14.45
2023-03-26T04:12:30.646Z,15.70
2023-03-26T04:13:33.191Z,16.73
2023-03-26T04:14:36.839Z,15.02
2023-03-26T04:17:46.488Z,14.23
2023-03-26T04:18:50.039Z,14.05
2023-03-26T04:19:53.352Z,15.20
2023-03-26T04:20:57.016Z,13.18
2023-03-26T04:23:06.708Z,13.55
2023-03-26T04:24:09.348Z,14.98
2023-03-26T04:25:13.983Z,14.88
2023-03-26T04:26:19.995Z,13.45
2023-03-26T04:27:30.582Z,14.40
2023-03-26T04:28:36.667Z,14.13
2023-03-26T04:29:44.330Z,14.82
2023-03-26T04:30:46.760Z,13.85
2023-03-26T04:31:50.795Z,14.27
2023-03-26T04:32:58.813Z,14.18
2023-03-26T04:34:08.607Z,14.80
2023-03-26T04:35:13.610Z,14.20
2023-03-26T04:36:18.554Z,13.80
2023-03-26T04:37:27.732Z,12.40
2023-03-26T04:38:35.835Z,13.48
2023-03-26T04:39:39.234Z,13.45
2023-03-26T04:40:42.759Z,13.50
2023-03-26T04:41:45.208Z,14.05
2023-03-26T04:42:48.972Z,13.82
2023-03-26T04:43:53.360Z,14.10
2023-03-26T04:44:59.877Z,13.65
2023-03-26T04:46:03.562Z,14.38
2023-03-26T04:47:07.203Z,13.18
2023-03-26T04:49:18.308Z,12.50
2023-03-26T04:50:21.136Z,14.68
2023-03-26T04:51:28.226Z,13.77
2023-03-26T04:52:31.052Z,13.95
2023-03-26T04:53:36.879Z,13.82
2023-03-26T04:54:39.664Z,13.80
2023-03-26T04:55:49.184Z,13.75
2023-03-26T04:56:55.542Z,12.95
2023-03-26T04:58:03.601Z,12.43
2023-03-26T04:59:08.269Z,13.50
2023-03-26T05:00:18.950Z,13.80
2023-03-26T05:01:22.214Z,13.55
2023-03-26T05:02:26.314Z,12.65
2023-03-26T05:03:32.093Z,13.77
2023-03-26T05:04:37.042Z,13.77
2023-03-26T05:05:40.301Z,13.02
2023-03-26T05:06:43.941Z,13.85
2023-03-26T05:08:49.845Z,13.20
2023-03-26T05:10:55.858Z,11.60
2023-03-26T05:11:58.737Z,12.68
2023-03-26T05:13:02.333Z,12.35
2023-03-26T05:14:04.801Z,12.10
2023-03-26T05:15:10.277Z,12.82
2023-03-26T05:16:12.827Z,12.27
2023-03-26T05:17:19.091Z,13.52
2023-03-26T05:18:21.563Z,12.73
2023-03-26T05:19:26.563Z,11.77
2023-03-26T05:20:31.342Z,12.05
2023-03-26T05:21:35.200Z,12.32
2023-03-26T05:22:38.806Z,12.82
2023-03-26T05:23:42.447Z,12.07
2023-03-26T05:25:48.505Z,12.32
2023-03-26T05:26:51.163Z,13.10
2023-03-26T05:27:54.676Z,12.65
2023-03-26T05:28:57.206Z,13.65
2023-03-26T05:30:02.885Z,13.48
2023-03-26T05:31:07.264Z,11.93
2023-03-26T05:32:11.699Z,12.18
2023-03-26T05:33:14.315Z,12.68
2023-03-26T05:34:17.975Z,11.93
2023-03-26T05:35:21.963Z,12.73
2023-03-26T05:36:26.185Z,12.00
2023-03-26T05:37:31.310Z,12.85
2023-03-26T05:38:35.887Z,11.50
2023-03-26T05:39:38.661Z,12.05
2023-03-26T05:40:42.253Z,12.02
2023-03-26T05:42:48.123Z,10.63
2023-03-26T05:44:54.848Z,11.32
2023-03-26T05:45:57.632Z,11.27
2023-03-26T05:47:01.247Z,11.48
2023-03-26T05:48:03.982Z,11.05
2023-03-26T05:49:07.628Z,11.65
2023-03-26T05:50:11.501Z,11.50
2023-03-26T05:51:16.929Z,10.93
2023-03-26T05:52:19.402Z,11.52
2023-03-26T05:53:24.376Z,11.95
2023-03-26T05:54:26.988Z,11.80
2023-03-26T05:55:33.598Z,11.45
2023-03-26T05:56:36.233Z,11.90
2023-03-26T05:57:39.785Z,11.80
2023-03-26T05:58:42.944Z,10.90
2023-03-26T05:59:46.538Z,11.50
2023-03-26T06:00:49.044Z,11.43
2023-03-26T06:01:54.775Z,11.57
2023-03-26T06:02:57.691Z,11.80
2023-03-26T06:04:01.588Z,11.07
2023-03-26T06:05:05.453Z,11.95
2023-03-26T06:06:09.725Z,11.68
2023-03-26T06:07:13.811Z,12.15
2023-03-26T06:08:17.307Z,11.98
2023-03-26T06:09:19.864Z,11.13
2023-03-26T06:10:24.048Z,12.30
2023-03-26T06:11:26.515Z,11.85
2023-03-26T06:12:30.259Z,11.40
2023-03-26T06:14:36.348Z,10.57
2023-03-26T06:15:38.798Z,11.95
2023-03-26T06:16:42.492Z,11.45
2023-03-26T06:18:48.596Z,10.98
2023-03-26T06:19:59.459Z,11.40
2023-03-26T06:21:03.224Z,11.98
2023-03-26T06:22:06.270Z,11.48
2023-03-26T06:23:11.398Z,11.82
2023-03-26T06:24:16.651Z,11.00
2023-03-26T06:25:19.334Z,11.80
2023-03-26T06:26:22.929Z,12.13
2023-03-26T06:27:25.770Z,9.60
2023-03-26T06:28:29.417Z,11.70
2023-03-26T06:30:35.483Z,10.95
2023-03-26T06:31:37.977Z,10.95
2023-03-26T06:32:41.913Z,11.70
2023-03-26T06:33:44.435Z,11.45
2023-03-26T06:34:48.073Z,11.20
2023-03-26T06:37:56.396Z,9.63
2023-03-26T06:39:01.503Z,10.48
2023-03-26T06:40:11.408Z,10.98
2023-03-26T06:41:16.307Z,10.93
2023-03-26T06:43:22.298Z,10.93
2023-03-26T06:44:24.783Z,10.65
2023-03-26T06:45:28.427Z,10.98
2023-03-26T06:47:35.101Z,10.45
2023-03-26T06:48:38.058Z,11.55
2023-03-26T06:49:43.128Z,11.77
2023-03-26T06:50:47.752Z,11.10
2023-03-26T06:51:51.423Z,10.88
2023-03-26T06:53:57.603Z,8.73
2023-03-26T06:55:01.962Z,12.43
2023-03-26T06:56:07.169Z,10.65
2023-03-26T06:57:11.664Z,10.63
2023-03-26T06:58:16.959Z,10.65
2023-03-26T06:59:20.026Z,10.85
2023-03-26T07:00:24.205Z,10.80
2023-03-26T07:01:29.332Z,12.77
2023-03-26T07:02:33.189Z,11.13
2023-03-26T07:03:35.756Z,11.75
2023-03-26T07:04:39.537Z,11.63
2023-03-26T07:05:42.240Z,10.88
2023-03-26T07:06:46.185Z,11.25
2023-03-26T07:07:48.823Z,11.73
2023-03-26T07:08:52.492Z,11.98
2023-03-26T07:10:59.730Z,12.48
2023-03-26T07:12:02.260Z,11.27
2023-03-26T07:13:06.025Z,11.50
2023-03-26T07:14:08.508Z,10.98
2023-03-26T07:15:12.585Z,11.23
2023-03-26T07:16:15.479Z,11.65
2023-03-26T07:17:19.103Z,11.65
2023-03-26T07:18:22.037Z,12.15
2023-03-26T07:19:25.498Z,11.27
2023-03-26T07:20:28.628Z,11.25
2023-03-26T07:21:32.868Z,11.00
2023-03-26T07:22:36.434Z,11.80
2023-03-26T07:23:40.547Z,11.13
2023-03-26T07:24:44.122Z,10.32
2023-03-26T07:27:01.689Z,10.60
2023-03-26T07:28:14.900Z,11.70
2023-03-26T07:29:24.209Z,11.27
2023-03-26T07:30:34.024Z,11.13
2023-03-26T07:31:42.820Z,10.65
2023-03-26T07:32:54.627Z,11.27
2023-03-26T07:34:04.734Z,10.57
2023-03-26T07:35:15.360Z,10.85
2023-03-26T07:36:26.076Z,11.30
2023-03-26T07:37:42.145Z,11.50
2023-03-26T07:39:00.389Z,11.88
2023-03-26T07:40:11.989Z,11.63
2023-03-26T07:41:24.386Z,10.27
2023-03-26T07:42:42.432Z,11.40
2023-03-26T07:44:04.441Z,10.68
2023-03-26T07:45:21.233Z,11.82
2023-03-26T07:46:32.146Z,11.07
2023-03-26T07:47:37.820Z,11.15
2023-03-26T07:48:42.987Z,11.40
2023-03-26T07:49:47.525Z,10.25
2023-03-26T07:50:51.815Z,11.25
2023-03-26T07:51:54.841Z,11.95
2023-03-26T07:52:58.945Z,11.48
2023-03-26T07:54:04.356Z,10.70
2023-03-26T07:55:08.618Z,10.98
2023-03-26T07:56:17.003Z,10.07
2023-03-26T07:57:29.425Z,11.45
2023-03-26T07:59:01.699Z,11.02
2023-03-26T08:00:12.443Z,10.25
2023-03-26T08:01:24.060Z,10.65
2023-03-26T08:02:59.044Z,11.35
2023-03-26T08:04:23.783Z,11.23
2023-03-26T08:05:32.280Z,11.07
2023-03-26T08:06:36.862Z,9.63
2023-03-26T08:07:53.599Z,11.25
2023-03-26T08:09:06.196Z,11.15
2023-03-26T08:10:17.528Z,11.02
2023-03-26T08:11:31.520Z,11.52
2023-03-26T08:12:42.048Z,10.27
2023-03-26T08:14:02.198Z,10.05
2023-03-26T08:15:13.494Z,10.20
2023-03-26T08:16:24.848Z,10.35
2023-03-26T08:17:38.251Z,10.35
2023-03-26T08:18:50.828Z,10.73
2023-03-26T08:20:11.093Z,10.73
2023-03-26T08:21:20.926Z,11.20
2023-03-26T08:23:50.320Z,10.43
2023-03-26T08:25:19.070Z,10.02
2023-03-26T08:26:33.633Z,11.10
2023-03-26T08:27:41.219Z,9.95
2023-03-26T08:29:04.069Z,10.25
2023-03-26T08:30:15.029Z,11.20
2023-03-26T08:31:20.294Z,11.30
2023-03-26T08:32:23.836Z,10.98
2023-03-26T08:33:28.964Z,9.82
2023-03-26T08:34:32.540Z,10.68
2023-03-26T08:36:39.467Z,10.65
2023-03-26T08:37:42.112Z,10.60
2023-03-26T08:38:46.886Z,9.80
2023-03-26T08:39:49.633Z,10.57
2023-03-26T08:41:40.967Z,10.02
2023-03-26T08:43:14.886Z,10.38
2023-03-26T08:45:02.738Z,9.82
2023-03-26T08:46:45.757Z,9.40
2023-03-26T08:48:19.747Z,8.98
2023-03-26T08:49:47.653Z,9.95
2023-03-26T08:51:28.437Z,9.50
2023-03-26T08:52:54.912Z,9.20
2023-03-26T08:54:30.286Z,9.95
2023-03-26T08:55:46.741Z,9.75
2023-03-26T08:57:04.064Z,9.55
2023-03-26T08:59:00.443Z,9.35
2023-03-26T09:00:43.215Z,9.50
2023-03-26T09:02:19.777Z,9.63
2023-03-26T09:03:42.823Z,9.68
2023-03-26T09:05:20.392Z,9.57
2023-03-26T09:06:56.934Z,9.45
2023-03-26T09:08:54.237Z,9.10
2023-03-26T09:10:46.864Z,9.52
2023-03-26T09:12:14.580Z,8.90
2023-03-26T09:13:51.847Z,9.35
2023-03-26T09:15:21.242Z,9.65
2023-03-26T09:16:49.344Z,9.65
2023-03-26T09:18:26.757Z,9.20
2023-03-26T09:20:06.420Z,10.27
2023-03-26T09:21:44.592Z,9.52
2023-03-26T09:23:34.921Z,9.30
2023-03-26T09:25:32.460Z,7.93
2023-03-26T09:26:48.249Z,8.82
2023-03-26T09:28:22.180Z,8.65
2023-03-26T09:29:54.973Z,8.02
2023-03-26T09:31:22.408Z,9.27
2023-03-26T09:33:11.785Z,8.35
2023-03-26T09:34:29.288Z,8.88
2023-03-26T09:35:52.408Z,9.88
2023-03-26T09:36:58.004Z,9.07
2023-03-26T09:38:07.573Z,8.52
2023-03-26T09:39:17.526Z,8.52
2023-03-26T09:40:23.327Z,8.02
2023-03-26T09:41:37.281Z,8.85
2023-03-26T09:42:46.026Z,8.07
2023-03-26T09:44:32.927Z,8.40
2023-03-26T09:45:53.000Z,8.70
2023-03-26T09:47:14.003Z,7.43
2023-03-26T09:48:46.512Z,8.27
2023-03-26T09:49:55.671Z,8.80
2023-03-26T09:51:20.666Z,8.38
2023-03-26T09:53:01.628Z,8.10
2023-03-26T09:55:46.662Z,7.88
2023-03-26T09:56:58.100Z,7.80
2023-03-26T09:58:46.941Z,7.75
2023-03-26T10:00:19.166Z,7.75
2023-03-26T10:01:32.325Z,7.63
2023-03-26T10:02:58.971Z,7.95
2023-03-26T10:04:36.100Z,7.78
2023-03-26T10:06:12.196Z,7.18
2023-03-26T10:07:43.129Z,7.75
2023-03-26T10:09:23.940Z,6.78
2023-03-26T10:10:37.184Z,7.32
2023-03-26T10:12:03.851Z,7.68
2023-03-26T10:13:21.950Z,6.97
2023-03-26T10:14:34.221Z,7.25
2023-03-26T10:15:54.955Z,6.65
2023-03-26T10:17:13.760Z,7.45
2023-03-26T10:18:29.401Z,6.65
2023-03-26T10:20:58.438Z,7.20
2023-03-26T10:22:13.210Z,7.13
2023-03-26T10:23:28.096Z,7.00
2023-03-26T10:24:47.881Z,7.32
2023-03-26T10:26:09.983Z,6.65
2023-03-26T10:27:38.940Z,6.97
2023-03-26T10:29:17.562Z,6.53
2023-03-26T10:30:51.106Z,7.43
2023-03-26T10:32:07.714Z,6.85
2023-03-26T10:33:20.760Z,7.32
2023-03-26T10:34:45.841Z,7.18
2023-03-26T10:36:02.381Z,6.65
2023-03-26T10:37:11.925Z,6.75
2023-03-26T10:38:25.739Z,6.88
2023-03-26T10:40:01.212Z,6.80
2023-03-26T10:41:10.544Z,6.90
2023-03-26T10:42:49.877Z,7.18
2023-03-26T10:44:19.859Z,6.95
2023-03-26T10:45:52.387Z,6.38
2023-03-26T10:47:26.355Z,6.32
2023-03-26T10:48:54.140Z,6.97
2023-03-26T10:50:27.956Z,6.40
2023-03-26T10:51:48.821Z,6.55
2023-03-26T10:53:00.526Z,6.97
2023-03-26T10:54:09.840Z,6.50
2023-03-26T10:55:20.047Z,6.68
2023-03-26T10:56:27.824Z,6.50
2023-03-26T10:57:42.365Z,6.70
2023-03-26T10:58:49.380Z,7.35
2023-03-26T10:59:55.836Z,6.72
2023-03-26T11:01:04.038Z,6.40
2023-03-26T11:03:52.404Z,6.90
2023-03-26T11:05:04.958Z,6.85
2023-03-26T11:06:18.634Z,6.85
2023-03-26T11:07:28.502Z,6.72
2023-03-26T11:09:46.524Z,7.20
2023-03-26T11:10:57.618Z,7.63
2023-03-26T11:12:26.321Z,7.32
2023-03-26T11:13:44.568Z,7.35
2023-03-26T11:14:53.014Z,7.53
2023-03-26T11:16:03.330Z,7.18
2023-03-26T11:17:40.096Z,8.05
2023-03-26T11:18:50.712Z,7.65
2023-03-26T11:19:59.215Z,7.97
2023-03-26T11:21:18.873Z,8.43
2023-03-26T11:22:35.952Z,8.00
2023-03-26T11:23:47.709Z,7.85
2023-03-26T11:25:36.279Z,7.78
2023-03-26T11:26:50.774Z,8.52
2023-03-26T11:28:09.632Z,9.07
2023-03-26T11:29:36.559Z,8.88
2023-03-26T11:30:47.405Z,8.35
2023-03-26T11:32:00.943Z,8.55
2023-03-26T11:33:09.327Z,8.85
2023-03-26T11:34:16.641Z,8.88
2023-03-26T11:35:40.562Z,9.43
2023-03-26T11:36:50.876Z,8.57
2023-03-26T11:37:55.759Z,8.70
2023-03-26T11:39:04.612Z,9.30
2023-03-26T11:40:15.796Z,8.98
2023-03-26T11:41:23.467Z,9.57
2023-03-26T11:42:26.391Z,9.85
2023-03-26T11:43:35.670Z,9.48
2023-03-26T11:44:42.843Z,10.10
2023-03-26T11:45:49.202Z,10.20
2023-03-26T11:46:58.979Z,10.48
2023-03-26T11:48:09.722Z,9.82
2023-03-26T11:49:15.053Z,9.95
2023-03-26T11:50:23.285Z,10.95
2023-03-26T11:51:32.170Z,10.48
2023-03-26T11:52:34.844Z,11.05
2023-03-26T11:53:40.129Z,10.98
2023-03-26T11:54:49.714Z,11.75
2023-03-26T11:56:04.293Z,9.93
2023-03-26T11:57:11.366Z,10.93
2023-03-26T11:58:30.082Z,10.98
2023-03-26T11:59:48.926Z,10.85
2023-03-26T12:00:56.833Z,10.63
2023-03-26T12:02:17.645Z,11.27
2023-03-26T12:03:21.101Z,10.18
2023-03-26T12:04:29.993Z,11.02
2023-03-26T12:05:50.084Z,10.48
2023-03-26T12:06:56.812Z,10.45
2023-03-26T12:08:02.145Z,10.35
2023-03-26T12:09:04.727Z,10.45
2023-03-26T12:10:24.135Z,9.60
2023-03-26T12:11:35.631Z,10.43
2023-03-26T12:12:41.642Z,10.25
2023-03-26T12:13:52.190Z,10.23
2023-03-26T12:14:55.641Z,9.02
2023-03-26T12:16:02.703Z,10.80
2023-03-26T12:17:09.874Z,10.27
2023-03-26T12:18:25.982Z,9.55
2023-03-26T12:19:37.217Z,9.48
2023-03-26T12:20:39.734Z,10.25
2023-03-26T12:21:47.790Z,11.68
2023-03-26T12:22:52.401Z,10.32
2023-03-26T12:23:59.285Z,9.65
2023-03-26T12:25:03.950Z,8.98
2023-03-26T12:26:17.023Z,9.60
2023-03-26T12:27:28.629Z,10.00
2023-03-26T12:28:33.680Z,9.82
2023-03-26T12:29:37.428Z,10.68
2023-03-26T12:30:42.528Z,10.18
2023-03-26T12:32:04.389Z,10.48
2023-03-26T12:33:14.560Z,9.63
2023-03-26T12:34:21.391Z,9.73
2023-03-26T12:35:28.167Z,9.70
2023-03-26T12:36:33.542Z,9.55
2023-03-26T12:37:38.857Z,10.70
2023-03-26T12:38:42.684Z,10.38
2023-03-26T12:40:08.661Z,10.52
2023-03-26T12:44:42.500Z,9.40
2023-03-26T12:44:49.666Z,10.00
2023-03-26T12:44:56.211Z,9.48
2023-03-26T12:47:55.431Z,9.93
2023-03-26T12:47:58.376Z,9.73
2023-03-26T12:48:44.591Z,9.82
2023-03-26T12:49:50.380Z,9.85
2023-03-26T12:51:11.448Z,9.85
2023-03-26T12:52:38.728Z,9.57
2023-03-26T12:53:58.200Z,9.52
2023-03-26T12:55:12.068Z,9.40
2023-03-26T12:56:24.346Z,10.23
2023-03-26T12:57:33.786Z,9.55
2023-03-26T12:58:55.231Z,9.18
2023-03-26T13:00:11.664Z,9.13
2023-03-26T13:01:26.647Z,10.35
2023-03-26T13:03:11.503Z,9.15
2023-03-26T13:04:38.941Z,10.07
2023-03-26T13:05:53.344Z,9.77
2023-03-26T13:07:02.610Z,10.32
2023-03-26T13:08:32.871Z,9.77
2023-03-26T13:09:53.222Z,10.57
2023-03-26T13:11:07.251Z,9.13
2023-03-26T13:12:26.080Z,9.57
2023-03-26T13:13:57.198Z,10.52
2023-03-26T13:15:14.529Z,9.55
2023-03-26T13:16:26.309Z,10.60
2023-03-26T13:17:41.476Z,10.90
2023-03-26T13:18:52.135Z,11.10
2023-03-26T13:20:12.378Z,11.25
2023-03-26T13:21:25.304Z,10.75
2023-03-26T13:22:39.323Z,10.60
2023-03-26T13:23:52.826Z,11.10
2023-03-26T13:25:02.065Z,10.82
2023-03-26T13:26:18.244Z,10.55
2023-03-26T13:27:38.337Z,10.60
2023-03-26T13:28:54.741Z,10.88
2023-03-26T13:30:03.260Z,10.80
2023-03-26T13:31:22.556Z,10.50
2023-03-26T13:32:37.587Z,9.30
2023-03-26T13:33:51.280Z,10.45
2023-03-26T13:35:06.553Z,10.35
2023-03-26T13:36:24.189Z,10.35
2023-03-26T13:37:36.440Z,10.35
2023-03-26T13:38:58.952Z,10.88
2023-03-26T13:40:17.570Z,9.52
2023-03-26T13:41:31.719Z,10.48
2023-03-26T13:42:48.201Z,10.57
2023-03-26T13:44:01.945Z,9.52
2023-03-26T13:45:15.596Z,9.88
2023-03-26T13:46:28.732Z,9.52
2023-03-26T13:47:36.063Z,10.55
2023-03-26T13:48:45.123Z,10.05
2023-03-26T13:49:56.981Z,10.48
2023-03-26T13:51:06.910Z,10.52
2023-03-26T13:52:16.323Z,10.52
2023-03-26T13:53:25.942Z,9.60
2023-03-26T13:54:33.562Z,10.10
2023-03-26T13:55:40.438Z,9.73
2023-03-26T13:56:49.809Z,9.68
2023-03-26T13:58:03.442Z,10.30
2023-03-26T13:59:12.894Z,9.55
2023-03-26T14:00:22.127Z,10.30
2023-03-26T14:01:35.138Z,10.45
2023-03-26T14:02:43.200Z,9.68
2023-03-26T14:03:59.264Z,10.48
2023-03-26T14:05:09.198Z,9.45
2023-03-26T14:06:30.160Z,11.10
2023-03-26T14:07:40.165Z,10.88
2023-03-26T14:08:47.459Z,11.18
2023-03-26T14:09:58.668Z,10.90
2023-03-26T14:11:11.110Z,10.02
2023-03-26T14:12:33.669Z,9.95
2023-03-26T14:13:50.537Z,10.02
2023-03-26T14:14:58.304Z,10.63
2023-03-26T14:16:06.769Z,10.48
2023-03-26T14:17:17.468Z,10.18
2023-03-26T14:18:31.237Z,10.07
2023-03-26T14:19:57.861Z,11.50
2023-03-26T14:21:34.529Z,9.55
2023-03-26T14:22:54.684Z,10.15
2023-03-26T14:24:44.151Z,10.20
2023-03-26T14:26:00.303Z,9.75
2023-03-26T14:27:20.223Z,10.68
2023-03-26T14:28:53.963Z,10.60
2023-03-26T14:30:29.605Z,10.13
2023-03-26T14:31:37.892Z,9.52
2023-03-26T14:33:03.381Z,10.18
2023-03-26T14:34:24.569Z,10.27
2023-03-26T14:35:37.828Z,11.63
2023-03-26T14:37:06.292Z,11.15
2023-03-26T14:38:48.138Z,11.48
2023-03-26T14:40:15.085Z,10.35
2023-03-26T14:41:25.540Z,11.43
2023-03-26T14:42:41.600Z,11.18
2023-03-26T14:45:54.427Z,10.18
2023-03-26T14:47:17.173Z,10.43
2023-03-26T14:48:44.156Z,10.70
2023-03-26T14:50:21.748Z,11.20
2023-03-26T14:51:37.852Z,11.40
2023-03-26T14:52:48.344Z,12.45
2023-03-26T14:53:55.968Z,12.63
2023-03-26T14:55:04.275Z,11.90
2023-03-26T14:56:27.530Z,13.10
2023-03-26T14:58:09.672Z,12.32
2023-03-26T14:59:57.757Z,12.30
2023-03-26T15:01:25.362Z,12.10
2023-03-26T15:03:12.845Z,11.43
2023-03-26T15:05:08.471Z,11.02
2023-03-26T15:06:38.307Z,10.75
2023-03-26T15:08:16.685Z,9.88
2023-03-26T15:10:06.006Z,10.48
2023-03-26T15:11:28.769Z,10.00
2023-03-26T15:13:03.953Z,9.55
2023-03-26T15:14:46.213Z,10.15
2023-03-26T15:16:17.823Z,9.57
2023-03-26T15:17:58.082Z,9.15
2023-03-26T15:19:39.393Z,9.90
2023-03-26T15:21:22.691Z,9.25
2023-03-26T15:23:05.521Z,9.05
2023-03-26T15:24:40.147Z,9.15
2023-03-26T15:26:25.193Z,8.98
2023-03-26T15:28:13.219Z,8.15
2023-03-26T15:29:49.595Z,8.48
2023-03-26T15:31:14.280Z,8.65
2023-03-26T15:33:14.747Z,8.10
2023-03-26T15:34:58.660Z,7.78
2023-03-26T15:36:18.843Z,8.07
2023-03-26T15:37:41.362Z,8.13
2023-03-26T15:39:38.344Z,7.72
2023-03-26T15:41:08.496Z,8.30
2023-03-26T15:42:22.471Z,9.07
2023-03-26T15:43:33.363Z,8.07
2023-03-26T15:44:53.904Z,8.35
2023-03-26T15:46:32.713Z,7.90
2023-03-26T15:47:56.407Z,8.23
2023-03-26T15:49:12.521Z,7.25
2023-03-26T15:50:27.366Z,7.53
2023-03-26T15:51:46.348Z,7.90
2023-03-26T15:52:57.311Z,7.57
2023-03-26T15:56:33.398Z,6.80
2023-03-26T15:57:44.336Z,6.82
2023-03-26T15:58:54.187Z,7.55
2023-03-26T16:01:34.176Z,6.82
2023-03-26T16:02:43.860Z,7.43
2023-03-26T16:03:56.064Z,7.30
2023-03-26T16:05:09.583Z,7.82
2023-03-26T16:06:31.396Z,7.22
2023-03-26T16:07:54.535Z,7.80
2023-03-26T16:09:22.947Z,7.47
2023-03-26T16:10:35.277Z,7.53
2023-03-26T16:11:52.900Z,8.00
2023-03-26T16:13:13.112Z,7.70
2023-03-26T16:14:20.890Z,8.27
2023-03-26T16:15:29.972Z,7.55
2023-03-26T16:17:23.460Z,7.82
2023-03-26T16:19:56.417Z,8.35
2023-03-26T16:21:34.973Z,8.32
2023-03-26T16:22:56.236Z,8.30
2023-03-26T16:24:18.695Z,8.27
2023-03-26T16:25:57.330Z,7.82
2023-03-26T16:27:30.085Z,8.40
2023-03-26T16:28:35.473Z,8.57
2023-03-26T16:30:15.655Z,8.02
2023-03-26T16:31:37.993Z,7.50
2023-03-26T16:32:48.281Z,7.28
2023-03-26T16:33:56.394Z,8.18